Time;durP1;ratioP1;P1;durP2;ratioP2;P2;SDS_P1;SDS_P2;PMS_P1;PMS_P2;Temp;Humidity;BMP_temperature;BMP_pressure;BME280_temperature;BME280_humidity;BME280_pressure;Samples;Min_cycle;Max_cycle;Signal;HPM_P1;HPM_P2
2022/03/12 00:01:14;;;;;;;11.85;6.95;;;9.50;33.20;;;;;;6251539;22;20026;-93
2022/03/12 00:03:42;;;;;;;14.43;7.90;;;9.50;15.40;;;;;;6250209;22;20522;-92
2022/03/12 00:06:18;;;;;;;13.27;7.82;;;9.50;31.70;;;;;;6250129;22;20099;-92
2022/03/12 00:08:47;;;;;;;15.63;8.75;;;9.40;8.80;;;;;;6249929;22;20110;-92
2022/03/12 00:11:20;;;;;;;15.50;7.82;;;9.50;44.50;;;;;;6250186;22;20016;-93
2022/03/12 00:14:27;;;;;;;15.70;8.57;;;9.50;34.90;;;;;;6277159;22;20015;-92
2022/03/12 00:17:09;;;;;;;14.70;7.80;;;9.30;1.00;;;;;;6243587;22;20019;-93
2022/03/12 00:19:36;;;;;;;16.50;8.50;;;9.40;31.00;;;;;;6250602;22;20011;-92
2022/03/12 00:22:07;;;;;;;17.60;7.85;;;9.40;24.90;;;;;;6225662;22;20024;-93
2022/03/12 00:24:43;;;;;;;14.52;7.65;;;9.40;19.60;;;;;;6249962;22;20452;-92
2022/03/12 00:27:23;;;;;;;14.02;8.07;;;9.40;1.00;;;;;;6250403;22;20394;-92
2022/03/12 00:29:55;;;;;;;14.60;8.40;;;9.40;49.20;;;;;;6250154;22;20027;-93
2022/03/12 00:32:23;;;;;;;17.35;8.10;;;9.30;18.10;;;;;;6250031;22;20016;-92
2022/03/12 00:34:50;;;;;;;16.00;8.32;;;9.40;34.80;;;;;;6250245;22;20020;-92
2022/03/12 00:37:21;;;;;;;16.17;9.00;;;9.40;28.70;;;;;;6225259;22;20015;-92
2022/03/12 00:40:04;;;;;;;14.73;7.55;;;9.30;5.40;;;;;;6251380;22;20032;-92
2022/03/12 00:42:49;;;;;;;17.30;7.57;;;9.30;17.00;;;;;;6253799;22;20026;-92
2022/03/12 00:45:25;;;;;;;13.48;7.43;;;9.30;28.20;;;;;;6248472;22;20046;-92
2022/03/12 00:48:02;;;;;;;16.25;7.22;;;9.30;28.40;;;;;;6226169;22;20019;-93
2022/03/12 00:50:45;;;;;;;14.23;8.48;;;9.40;52.50;;;;;;6228172;22;20019;-92
2022/03/12 00:53:18;;;;;;;15.13;8.32;;;9.40;44.30;;;;;;6275275;22;20435;-92
2022/03/12 00:55:46;;;;;;;16.27;7.70;;;9.20;5.20;;;;;;6250059;22;20070;-92
2022/03/12 00:58:20;;;;;;;17.35;7.68;;;9.30;25.60;;;;;;6250955;22;20012;-92
2022/03/12 01:00:48;;;;;;;15.90;8.43;;;9.30;36.20;;;;;;6224697;22;20510;-92
2022/03/12 01:03:16;;;;;;;11.98;7.05;;;9.30;45.20;;;;;;6249490;22;20024;-92
2022/03/12 01:05:49;;;;;;;18.33;9.25;;;9.30;56.50;;;;;;6249803;22;20105;-92
2022/03/12 01:08:18;;;;;;;12.25;7.20;;;9.30;17.50;;;;;;6249630;22;20454;-92
2022/03/12 01:10:46;;;;;;;13.75;7.78;;;9.30;55.00;;;;;;6275249;22;20016;-93
2022/03/12 01:13:20;;;;;;;16.17;7.80;;;9.30;63.00;;;;;;6249550;22;20020;-93
2022/03/12 01:15:54;;;;;;;12.32;7.72;;;9.30;76.10;;;;;;6249390;22;20106;-91
2022/03/12 01:18:27;;;;;;;17.67;9.32;;;9.30;69.30;;;;;;6275501;22;20121;-92
2022/03/12 01:21:17;;;;;;;16.40;8.45;;;9.30;74.60;;;;;;6249914;22;20024;-93
2022/03/12 01:23:47;;;;;;;13.35;7.18;;;9.20;30.60;;;;;;6249902;22;20123;-92
2022/03/12 01:26:19;;;;;;;18.35;7.70;;;9.30;94.40;;;;;;6249396;22;20102;-92
2022/03/12 01:28:47;;;;;;;14.00;7.35;;;9.20;28.70;;;;;;6249896;22;20030;-93
2022/03/12 01:31:16;;;;;;;14.23;7.78;;;9.20;64.60;;;;;;6249940;22;20019;-92
2022/03/12 01:33:43;;;;;;;16.10;7.90;;;9.20;40.20;;;;;;6224405;22;20047;-92
2022/03/12 01:36:19;;;;;;;13.85;8.02;;;9.30;77.70;;;;;;6225031;22;20020;-92
2022/03/12 01:39:07;;;;;;;15.15;7.57;;;9.30;92.20;;;;;;6229375;22;20008;-94
2022/03/12 01:41:40;;;;;;;14.02;7.65;;;9.20;96.20;;;;;;6250393;22;20039;-93
2022/03/12 01:44:16;;;;;;;12.02;6.53;;;9.30;98.90;;;;;;6250085;22;20027;-92
2022/03/12 01:47:01;;;;;;;12.50;7.85;;;9.30;99.90;;;;;;6224812;22;20409;-92
2022/03/12 01:49:54;;;;;;;15.80;7.65;;;9.20;98.40;;;;;;6247593;22;20434;-92
2022/03/12 01:52:22;;;;;;;15.73;7.60;;;9.10;40.90;;;;;;6249604;22;20799;-92
2022/03/12 01:54:50;;;;;;;17.58;9.05;;;9.10;85.00;;;;;;6249193;22;20008;-92
2022/03/12 01:57:17;;;;;;;12.50;8.45;;;9.10;36.60;;;;;;6250596;22;20019;-91
2022/03/12 01:59:44;;;;;;;16.98;8.82;;;9.10;42.80;;;;;;6253491;22;20019;-92
2022/03/12 02:02:13;;;;;;;11.25;6.47;;;9.10;54.30;;;;;;6225388;22;20019;-92
2022/03/12 02:04:49;;;;;;;16.33;8.85;;;9.10;98.70;;;;;;6251053;22;20714;-92
2022/03/12 02:07:21;;;;;;;14.60;8.02;;;9.10;86.40;;;;;;6251283;22;20041;-93
2022/03/12 02:09:57;;;;;;;14.40;8.32;;;9.10;98.40;;;;;;6252395;22;20077;-91
2022/03/12 02:12:41;;;;;;;17.20;9.18;;;9.00;99.80;;;;;;6250620;22;20012;-92
2022/03/12 02:15:09;;;;;;;13.18;6.50;;;8.90;71.80;;;;;;6251888;22;20513;-92
2022/03/12 02:17:39;;;;;;;14.68;8.02;;;8.90;99.90;;;;;;6225967;22;20020;-92
2022/03/12 02:20:06;;;;;;;15.63;8.70;;;8.90;99.90;;;;;;6226600;22;20034;-92
2022/03/12 02:22:37;;;;;;;15.90;8.43;;;8.90;99.90;;;;;;6277228;22;20089;-92
2022/03/12 02:25:07;;;;;;;15.48;8.93;;;8.70;99.90;;;;;;6251382;22;20056;-92
2022/03/12 02:27:34;;;;;;;16.23;9.45;;;8.70;99.90;;;;;;6251681;22;20062;-92
2022/03/12 02:30:02;;;;;;;20.52;11.98;;;8.80;99.90;;;;;;6226404;22;20015;-93
2022/03/12 02:32:29;;;;;;;18.38;7.93;;;8.70;99.90;;;;;;6226226;22;21803;-92
2022/03/12 02:34:58;;;;;;;15.77;9.63;;;8.80;99.90;;;;;;6225163;22;20015;-92
2022/03/12 02:37:30;;;;;;;15.68;8.18;;;8.60;99.90;;;;;;6224980;22;20098;-92
2022/03/12 02:39:58;;;;;;;19.63;10.18;;;8.80;99.90;;;;;;6250304;22;20438;-91
2022/03/12 02:42:31;;;;;;;17.80;9.88;;;8.60;99.90;;;;;;6225344;22;20030;-92
2022/03/12 02:45:06;;;;;;;17.80;8.90;;;8.70;99.90;;;;;;6227287;22;20023;-92
2022/03/12 02:47:36;;;;;;;22.10;11.18;;;8.70;99.90;;;;;;6251656;22;20023;-92
2022/03/12 02:50:07;;;;;;;14.70;8.55;;;8.70;99.90;;;;;;6253192;22;20030;-92
2022/03/12 02:52:41;;;;;;;13.63;7.82;;;8.70;99.90;;;;;;6252058;22;20019;-93
2022/03/12 02:55:22;;;;;;;16.98;10.38;;;8.80;99.90;;;;;;6277822;22;20442;-93
2022/03/12 02:57:51;;;;;;;19.23;9.10;;;8.60;99.90;;;;;;6250665;22;20012;-92
2022/03/12 03:00:20;;;;;;;18.95;10.48;;;8.70;99.90;;;;;;6276684;22;20039;-92
2022/03/12 03:03:17;;;;;;;16.75;8.90;;;8.70;99.90;;;;;;6251070;22;20359;-93
2022/03/12 03:05:47;;;;;;;15.02;8.23;;;8.70;99.90;;;;;;6250789;22;20016;-93
2022/03/12 03:08:20;;;;;;;14.75;8.60;;;8.60;99.90;;;;;;6252349;22;20062;-92
2022/03/12 03:10:50;;;;;;;13.23;8.38;;;8.70;99.90;;;;;;6250444;22;20024;-93
2022/03/12 03:13:21;;;;;;;16.17;9.68;;;8.70;99.90;;;;;;6250388;22;20026;-91
2022/03/12 03:15:59;;;;;;;19.35;9.80;;;8.70;99.90;;;;;;6225352;22;20111;-92
2022/03/12 03:18:31;;;;;;;17.77;8.88;;;8.70;99.90;;;;;;6250396;22;20015;-94
2022/03/12 03:21:02;;;;;;;14.77;8.32;;;8.60;99.90;;;;;;6250883;22;20054;-92
2022/03/12 03:23:32;;;;;;;15.57;9.00;;;8.70;99.90;;;;;;6275598;22;20098;-92
2022/03/12 03:26:00;;;;;;;12.38;6.38;;;8.70;99.90;;;;;;6273382;22;20078;-93
2022/03/12 03:28:27;;;;;;;15.57;8.55;;;8.70;99.90;;;;;;6250244;22;20028;-92
2022/03/12 03:30:57;;;;;;;17.13;8.85;;;8.60;99.90;;;;;;6226232;22;20024;-92
2022/03/12 03:33:25;;;;;;;16.00;8.82;;;8.60;99.90;;;;;;6251408;22;20078;-92
2022/03/12 03:36:00;;;;;;;12.70;8.15;;;8.60;99.90;;;;;;6250668;22;20016;-92
2022/03/12 03:38:34;;;;;;;16.85;9.40;;;8.50;99.90;;;;;;6252019;22;20079;-92
2022/03/12 03:41:01;;;;;;;23.00;12.18;;;8.50;99.90;;;;;;6254145;22;20027;-92
2022/03/12 03:43:28;;;;;;;13.95;8.23;;;8.40;99.90;;;;;;6226209;22;20019;-92
2022/03/12 03:45:58;;;;;;;17.45;9.80;;;8.40;99.90;;;;;;6226609;22;20019;-93
2022/03/12 03:48:39;;;;;;;19.92;9.70;;;8.50;99.90;;;;;;6251315;22;20083;-92
2022/03/12 03:51:27;;;;;;;18.58;9.57;;;8.50;99.90;;;;;;6245205;23;20020;-92
2022/03/12 03:53:57;;;;;;;15.27;7.78;;;8.40;99.90;;;;;;6226566;22;20438;-92
2022/03/12 03:56:28;;;;;;;14.63;8.20;;;8.50;99.90;;;;;;6226813;22;20031;-92
2022/03/12 03:58:55;;;;;;;17.20;9.52;;;8.40;99.90;;;;;;6225729;22;20020;-92
2022/03/12 04:01:22;;;;;;;18.23;8.32;;;8.40;99.90;;;;;;6276265;22;20070;-93
2022/03/12 04:04:03;;;;;;;21.02;11.48;;;8.50;99.90;;;;;;6225802;22;20028;-92
2022/03/12 04:06:38;;;;;;;17.85;9.50;;;8.30;99.90;;;;;;6226841;22;20079;-93
2022/03/12 04:09:10;;;;;;;16.40;9.40;;;8.30;99.90;;;;;;6250402;22;20027;-92
2022/03/12 04:11:45;;;;;;;19.70;8.85;;;8.30;99.90;;;;;;6251644;22;20016;-92
2022/03/12 04:14:30;;;;;;;19.95;7.90;;;8.30;99.90;;;;;;6252533;22;20016;-93
2022/03/12 04:17:05;;;;;;;13.65;8.05;;;8.40;99.90;;;;;;6255032;22;20024;-93
2022/03/12 04:19:47;;;;;;;19.52;9.40;;;8.30;99.90;;;;;;6252376;22;20022;-93
2022/03/12 04:22:20;;;;;;;20.33;9.20;;;8.30;99.90;;;;;;6250381;22;20019;-93
2022/03/12 04:24:51;;;;;;;17.88;8.15;;;8.10;99.90;;;;;;6225715;22;20107;-92
2022/03/12 04:27:22;;;;;;;17.88;9.73;;;8.20;99.90;;;;;;6251564;22;20024;-91
2022/03/12 04:29:49;;;;;;;17.83;9.90;;;8.20;99.90;;;;;;6226515;22;20106;-92
2022/03/12 04:32:16;;;;;;;13.30;7.75;;;8.10;99.90;;;;;;6225817;22;20419;-92
2022/03/12 04:34:46;;;;;;;14.23;7.47;;;8.20;99.90;;;;;;6225572;22;20324;-93
2022/03/12 04:37:17;;;;;;;14.15;7.93;;;8.20;99.90;;;;;;6226035;22;20015;-92
2022/03/12 04:39:49;;;;;;;23.88;9.63;;;8.20;99.90;;;;;;6225527;22;20015;-93
2022/03/12 04:42:18;;;;;;;15.80;8.65;;;8.20;99.90;;;;;;6250754;22;20023;-92
2022/03/12 04:44:48;;;;;;;18.85;9.18;;;8.20;99.90;;;;;;6251505;22;20023;-92
2022/03/12 04:47:19;;;;;;;11.13;6.70;;;8.20;99.90;;;;;;6250922;22;20043;-92
2022/03/12 04:49:56;;;;;;;21.65;10.23;;;8.10;99.90;;;;;;6253078;22;20020;-93
2022/03/12 04:52:44;;;;;;;15.35;7.95;;;8.00;99.90;;;;;;6249901;22;20019;-92
2022/03/12 04:55:22;;;;;;;17.38;9.45;;;8.10;99.90;;;;;;6226814;22;20086;-92
2022/03/12 04:57:59;;;;;;;16.35;8.15;;;8.10;99.90;;;;;;6226203;22;20020;-92
2022/03/12 05:00:38;;;;;;;14.85;7.57;;;8.00;99.90;;;;;;6249839;22;20019;-93
2022/03/12 05:03:19;;;;;;;17.10;9.70;;;8.10;99.90;;;;;;6223447;22;20032;-92
2022/03/12 05:06:08;;;;;;;15.77;9.00;;;8.10;99.90;;;;;;6250749;22;20023;-92
2022/03/12 05:08:47;;;;;;;13.40;8.27;;;8.00;99.90;;;;;;6251276;22;20042;-92
2022/03/12 05:11:39;;;;;;;11.32;6.43;;;7.90;99.90;;;;;;6229049;22;20019;-92
2022/03/12 05:14:10;;;;;;;18.70;9.57;;;8.00;99.90;;;;;;6224520;22;20020;-92
2022/03/12 05:16:37;;;;;;;12.55;7.28;;;8.00;99.90;;;;;;6249108;22;20015;-91
2022/03/12 05:19:06;;;;;;;17.15;9.88;;;7.90;99.90;;;;;;6249404;22;20023;-92
2022/03/12 05:21:37;;;;;;;22.45;9.23;;;7.70;99.90;;;;;;6224803;22;20028;-90
2022/03/12 05:24:05;;;;;;;18.20;10.35;;;7.60;99.90;;;;;;6224938;22;20074;-91
2022/03/12 05:26:46;;;;;;;13.43;7.55;;;7.60;99.90;;;;;;6249314;22;20026;-92
2022/03/12 05:29:26;;;;;;;14.25;7.90;;;7.70;99.90;;;;;;6226869;22;20023;-92
2022/03/12 05:31:56;;;;;;;16.10;8.18;;;7.80;99.90;;;;;;6250333;22;20019;-92
2022/03/12 05:34:24;;;;;;;20.42;11.18;;;7.80;99.90;;;;;;6278585;22;20016;-92
2022/03/12 05:36:51;;;;;;;14.93;8.52;;;7.70;99.90;;;;;;6226301;22;20843;-92
2022/03/12 05:39:20;;;;;;;13.55;7.43;;;7.70;99.90;;;;;;6277637;22;20016;-92
2022/03/12 05:41:48;;;;;;;18.02;10.13;;;7.80;99.90;;;;;;6278671;22;20043;-91
2022/03/12 05:44:16;;;;;;;20.33;9.50;;;7.70;99.90;;;;;;6251339;22;20094;-91
2022/03/12 05:46:44;;;;;;;18.45;10.25;;;7.70;99.90;;;;;;6277866;22;20043;-92
2022/03/12 05:49:21;;;;;;;14.30;8.30;;;7.70;99.90;;;;;;6288361;22;20102;-91
2022/03/12 05:52:21;;;;;;;17.92;8.93;;;7.70;99.90;;;;;;6266650;22;20064;-93
2022/03/12 05:54:48;;;;;;;19.05;9.40;;;7.70;99.90;;;;;;6244813;22;20848;-91
2022/03/12 05:57:15;;;;;;;16.63;9.18;;;7.70;99.90;;;;;;6226498;22;20346;-91
2022/03/12 05:59:43;;;;;;;22.50;10.05;;;7.60;99.90;;;;;;6225854;22;20098;-92
2022/03/12 06:02:14;;;;;;;17.30;9.77;;;7.60;99.90;;;;;;6226152;22;20069;-91
2022/03/12 06:04:46;;;;;;;14.18;7.82;;;7.60;99.90;;;;;;6251066;22;20019;-92
2022/03/12 06:07:24;;;;;;;14.88;7.63;;;7.70;99.90;;;;;;6252456;22;20026;-92
2022/03/12 06:09:54;;;;;;;19.17;9.32;;;7.60;99.90;;;;;;6253012;22;20030;-92
2022/03/12 06:12:21;;;;;;;16.88;9.13;;;7.50;99.90;;;;;;6253361;22;20354;-92
2022/03/12 06:14:55;;;;;;;17.13;8.23;;;7.50;99.90;;;;;;6251615;22;20019;-92
2022/03/12 06:17:25;;;;;;;13.95;7.50;;;7.50;99.90;;;;;;6251476;22;20027;-92
2022/03/12 06:19:53;;;;;;;18.20;8.32;;;7.60;99.90;;;;;;6252089;22;20007;-92
2022/03/12 06:22:22;;;;;;;14.32;8.15;;;7.60;99.90;;;;;;6225575;22;20023;-93
2022/03/12 06:24:53;;;;;;;16.38;8.05;;;7.60;99.90;;;;;;6252193;22;20012;-92
2022/03/12 06:27:22;;;;;;;15.07;7.90;;;7.60;99.90;;;;;;6251673;22;20046;-92
2022/03/12 06:30:13;;;;;;;16.10;8.48;;;7.60;99.90;;;;;;6251584;22;20073;-93
2022/03/12 06:32:47;;;;;;;13.57;7.32;;;7.60;99.90;;;;;;6251583;22;20015;-93
2022/03/12 06:35:15;;;;;;;11.45;6.88;;;7.60;99.90;;;;;;6227747;22;20012;-93
2022/03/12 06:37:46;;;;;;;13.00;7.28;;;7.60;99.90;;;;;;6282566;22;20035;-92
2022/03/12 06:40:28;;;;;;;17.15;9.20;;;7.60;99.90;;;;;;6286358;22;20023;-93
2022/03/12 06:42:59;;;;;;;15.23;8.23;;;7.60;99.90;;;;;;6226013;22;20016;-93
2022/03/12 06:45:31;;;;;;;19.50;8.85;;;7.60;99.90;;;;;;6251849;22;20023;-90
2022/03/12 06:47:59;;;;;;;13.35;8.00;;;7.60;99.90;;;;;;6274651;22;20028;-92
2022/03/12 06:50:27;;;;;;;15.68;7.72;;;7.60;99.90;;;;;;6226285;22;20050;-92
2022/03/12 06:52:56;;;;;;;14.73;8.32;;;7.50;99.90;;;;;;6277576;22;20015;-91
2022/03/12 06:55:24;;;;;;;15.70;9.02;;;7.50;99.90;;;;;;6251539;22;20047;-92
2022/03/12 06:58:14;;;;;;;13.40;7.75;;;7.50;99.90;;;;;;6251562;22;20042;-94
2022/03/12 07:00:50;;;;;;;15.70;7.80;;;7.50;99.90;;;;;;6253353;22;20039;-91
2022/03/12 07:08:19;;;;;;;15.40;7.07;;;7.50;99.90;;;;;;6283780;22;20042;-93
2022/03/12 07:11:16;;;;;;;12.60;6.47;;;7.50;99.90;;;;;;6277406;22;20028;-95
2022/03/12 07:14:29;;;;;;;15.32;7.43;;;7.50;99.90;;;;;;6215993;23;20138;-90
2022/03/12 07:18:31;;;;;;;15.98;9.18;;;7.50;99.90;;;;;;6189137;23;20021;-93
2022/03/12 07:21:07;;;;;;;15.00;7.85;;;7.50;99.90;;;;;;6204728;23;20016;-91
2022/03/12 07:24:51;;;;;;;;;;;;;;;;;;;;;
2022/03/12 07:28:17;;;;;;;16.05;6.95;;;7.50;99.90;;;;;;6244719;23;20008;-94
2022/03/12 07:30:52;;;;;;;14.45;8.60;;;7.50;99.90;;;;;;6251523;22;20047;-91
2022/03/12 07:33:44;;;;;;;18.02;8.73;;;7.50;99.90;;;;;;6255677;22;20098;-95
2022/03/12 07:36:13;;;;;;;14.15;8.25;;;7.50;99.90;;;;;;6249931;22;20485;-89
2022/03/12 07:38:40;;;;;;;12.45;7.65;;;7.50;99.90;;;;;;6276871;22;20074;-89
2022/03/12 07:41:10;;;;;;;14.95;7.95;;;7.50;99.90;;;;;;6276530;22;20015;-90
2022/03/12 07:43:49;;;;;;;16.92;9.23;;;7.60;99.90;;;;;;6252528;22;20012;-89
2022/03/12 07:46:39;;;;;;;11.95;7.68;;;7.60;99.90;;;;;;6254448;22;20458;-92
2022/03/12 07:49:09;;;;;;;15.20;7.57;;;7.60;99.90;;;;;;6276742;22;20011;-92
2022/03/12 07:52:08;;;;;;;15.25;8.73;;;7.60;99.90;;;;;;6252969;22;20015;-91
2022/03/12 07:54:37;;;;;;;16.15;8.82;;;7.60;99.90;;;;;;6274834;22;20012;-92
2022/03/12 07:57:04;;;;;;;17.35;8.50;;;7.70;99.90;;;;;;6224584;22;20032;-91
2022/03/12 07:59:36;;;;;;;17.35;9.05;;;7.70;99.90;;;;;;6274866;22;20014;-90
2022/03/12 08:02:09;;;;;;;14.57;7.97;;;7.70;99.90;;;;;;6249975;22;20421;-90
2022/03/12 08:04:40;;;;;;;14.63;8.38;;;7.70;99.90;;;;;;6225415;22;20252;-95
2022/03/12 08:07:11;;;;;;;12.25;7.50;;;7.70;99.90;;;;;;6225494;22;20074;-90
2022/03/12 21:16:27;;;;;;;14.18;4.70;;;10.50;99.90;;;;;;6306861;22;20405;-91
2022/03/12 21:19:29;;;;;;;9.90;5.78;;;10.50;99.90;;;;;;6280607;22;20451;-93
2022/03/12 21:22:30;;;;;;;10.25;5.63;;;10.40;99.90;;;;;;6306905;22;20027;-92
2022/03/12 21:25:47;;;;;;;;;;;10.40;99.90;;;;;;6308971;22;20093;-92
2022/03/12 21:28:30;;;;;;;8.30;4.53;;;10.40;99.90;;;;;;6257865;22;19919;-93
2022/03/12 21:31:18;;;;;;;9.30;6.00;;;10.40;99.90;;;;;;6281493;22;20097;-92
2022/03/12 21:36:59;;;;;;;;;;;10.40;99.90;;;;;;6268339;22;20019;-92
2022/03/12 21:39:37;;;;;;;10.07;5.00;;;10.40;99.90;;;;;;6282695;22;19942;-92
2022/03/12 21:42:14;;;;;;;14.50;6.40;;;10.40;99.90;;;;;;6258626;22;20062;-91
2022/03/12 21:44:42;;;;;;;14.15;6.30;;;10.40;99.90;;;;;;6308729;22;20019;-92
2022/03/12 21:47:12;;;;;;;15.65;6.65;;;10.40;99.90;;;;;;6256927;22;20019;-91
2022/03/12 21:49:45;;;;;;;15.07;6.05;;;10.40;99.90;;;;;;6281013;22;20019;-92
2022/03/12 21:52:52;;;;;;;10.73;5.95;;;10.40;99.90;;;;;;6285968;22;20015;-92
2022/03/12 21:55:31;;;;;;;8.52;5.18;;;10.40;99.90;;;;;;6281606;22;20019;-91
2022/03/12 21:58:12;;;;;;;12.63;6.65;;;10.30;99.90;;;;;;6256904;22;20031;-92
2022/03/12 22:00:46;;;;;;;11.95;6.20;;;10.30;99.90;;;;;;6283692;22;20073;-92
2022/03/12 22:03:48;;;;;;;11.00;6.45;;;10.40;99.90;;;;;;6309726;22;20016;-92
2022/03/12 22:06:44;;;;;;;12.45;6.72;;;10.40;99.90;;;;;;6260555;22;20023;-92
2022/03/12 22:09:44;;;;;;;10.00;5.70;;;10.40;99.90;;;;;;6281752;22;20045;-92
2022/03/12 22:12:13;;;;;;;11.00;7.35;;;10.40;99.90;;;;;;6283330;22;20015;-92
2022/03/12 22:14:44;;;;;;;7.65;5.15;;;10.40;99.90;;;;;;6283466;22;20012;-92
2022/03/12 22:17:15;;;;;;;19.27;8.05;;;10.40;99.90;;;;;;6259927;22;20019;-92
2022/03/12 22:19:44;;;;;;;12.20;7.55;;;10.40;99.90;;;;;;6258228;22;20073;-91
2022/03/12 22:22:16;;;;;;;11.45;7.15;;;10.40;99.90;;;;;;6259925;22;20331;-92
2022/03/12 22:25:12;;;;;;;13.60;7.03;;;10.40;99.90;;;;;;6283483;22;20019;-91
2022/03/12 22:27:47;;;;;;;9.07;6.10;;;10.40;99.90;;;;;;6260339;22;20012;-91
2022/03/12 22:30:17;;;;;;;11.98;6.40;;;10.40;99.90;;;;;;6285146;22;20085;-93
2022/03/12 22:32:47;;;;;;;12.73;7.25;;;10.40;99.90;;;;;;6283810;22;20015;-92
2022/03/12 22:35:17;;;;;;;14.27;5.90;;;10.40;99.90;;;;;;6311103;22;20015;-92
2022/03/12 22:37:59;;;;;;;10.52;6.90;;;10.40;99.90;;;;;;6284676;22;20363;-93
2022/03/12 22:40:37;;;;;;;15.10;7.72;;;10.40;99.90;;;;;;6284322;22;20011;-91
2022/03/12 22:43:04;;;;;;;11.82;7.53;;;10.40;99.90;;;;;;6282981;22;20019;-91
2022/03/12 22:45:50;;;;;;;10.45;7.20;;;10.50;99.90;;;;;;6313250;22;20090;-91
2022/03/12 22:48:43;;;;;;;14.75;7.15;;;10.40;99.90;;;;;;6263898;22;20023;-92
2022/03/12 22:51:13;;;;;;;;;;;10.40;99.90;;;;;;6313266;22;20019;-92
2022/03/12 22:54:16;;;;;;;9.52;6.63;;;10.50;99.90;;;;;;6258554;22;19915;-93
2022/03/12 22:57:31;;;;;;;9.40;6.25;;;10.50;99.90;;;;;;6271772;22;20026;-92
2022/03/12 23:00:21;;;;;;;10.90;6.63;;;10.50;99.90;;;;;;6285710;22;20011;-93
2022/03/12 23:02:57;;;;;;;10.02;6.57;;;10.50;99.90;;;;;;6214514;22;20099;-92
2022/03/12 23:11:11;;;;;;;12.13;7.20;;;10.50;99.90;;;;;;6283990;22;20030;-92
2022/03/12 23:13:52;;;;;;;11.55;6.53;;;10.50;99.90;;;;;;6259706;22;20022;-91
2022/03/12 23:16:24;;;;;;;13.43;7.80;;;10.50;99.90;;;;;;6310193;22;20012;-91
2022/03/12 23:19:07;;;;;;;12.18;7.05;;;10.50;99.90;;;;;;6282898;22;20015;-92
2022/03/12 23:21:40;;;;;;;11.77;5.57;;;10.40;99.90;;;;;;6283040;22;20462;-92
2022/03/12 23:24:09;;;;;;;11.25;8.00;;;10.50;99.90;;;;;;6258641;22;20023;-91
2022/03/12 23:26:39;;;;;;;14.98;7.57;;;10.50;99.90;;;;;;6256852;22;20528;-91
2022/03/12 23:29:10;;;;;;;15.43;8.30;;;10.50;99.90;;;;;;6286658;22;20026;-92
2022/03/12 23:31:50;;;;;;;13.15;7.68;;;10.40;99.90;;;;;;6314880;22;20041;-91
2022/03/12 23:34:39;;;;;;;18.50;9.05;;;10.40;99.90;;;;;;6260050;22;20061;-93
2022/03/12 23:37:23;;;;;;;17.10;10.18;;;10.40;99.90;;;;;;6257498;22;20015;-92
2022/03/12 23:40:39;;;;;;;24.27;11.88;;;10.40;99.90;;;;;;6282557;22;20018;-92
2022/03/12 23:43:12;;;;;;;15.30;8.15;;;10.40;99.90;;;;;;6257755;22;20019;-92
2022/03/12 23:45:46;;;;;;;13.15;8.60;;;10.40;99.90;;;;;;6258518;22;20102;-92
2022/03/12 23:48:24;;;;;;;12.93;8.48;;;10.30;99.90;;;;;;6282171;22;20019;-92
2022/03/12 23:51:00;;;;;;;12.35;7.85;;;10.30;99.90;;;;;;6283445;22;20089;-92
2022/03/12 23:53:37;;;;;;;11.82;7.50;;;10.30;99.90;;;;;;6283991;22;20018;-93
2022/03/12 23:56:13;;;;;;;17.00;7.65;;;10.30;99.90;;;;;;6282113;22;20011;-92
2022/03/12 23:58:47;;;;;;;13.20;8.27;;;10.30;99.90;;;;;;6282639;22;20030;-93
